Time;durP1;ratioP1;P1;durP2;ratioP2;P2;SDS_P1;SDS_P2;PMS_P1;PMS_P2;Temp;Humidity;BMP_temperature;BMP_pressure;BME280_temperature;BME280_humidity;BME280_pressure;Samples;Min_cycle;Max_cycle;Signal;HPM_P1;HPM_P2
2023/12/08 00:02:03;;;;;;;21.10;18.90;;;;;;;;;;5095874;27;20055;-67
2023/12/08 00:04:29;;;;;;;20.52;18.38;;;;;;;;;;5105181;28;20040;-66
2023/12/08 00:06:55;;;;;;;20.88;18.52;;;;;;;;;;5076484;28;20055;-67
2023/12/08 00:09:22;;;;;;;19.30;17.33;;;;;;;;;;5094976;28;20039;-67
2023/12/08 00:11:48;;;;;;;18.35;16.45;;;;;;;;;;5106968;28;20118;-67
2023/12/08 00:14:14;;;;;;;18.90;16.90;;;;;;;;;;5093305;28;20047;-67
2023/12/08 00:16:41;;;;;;;18.20;16.25;;;;;;;;;;5092820;28;20046;-68
2023/12/08 00:19:08;;;;;;;17.48;15.38;;;;;;;;;;5109514;28;20035;-67
2023/12/08 00:21:34;;;;;;;16.88;15.02;;;;;;;;;;5108607;28;20381;-67
2023/12/08 00:24:00;;;;;;;16.80;15.00;;;;;;;;;;5108637;28;20040;-66
2023/12/08 00:26:26;;;;;;;16.48;14.77;;;;;;;;;;5075256;28;20054;-67
2023/12/08 00:28:52;;;;;;;16.67;14.88;;;;;;;;;;5087092;28;20160;-67
2023/12/08 00:31:20;;;;;;;15.73;13.80;;;13.70;80.30;;;;;;5087706;28;20051;-67
2023/12/08 00:33:46;;;;;;;16.50;14.75;;;;;;;;;;5074516;28;20071;-66
2023/12/08 00:36:13;;;;;;;15.48;13.88;;;;;;;;;;5073614;28;20067;-67
2023/12/08 00:38:39;;;;;;;15.63;14.02;;;;;;;;;;5101403;28;20086;-67
2023/12/08 00:41:05;;;;;;;15.73;13.80;;;;;;;;;;5074376;28;20564;-66
2023/12/08 00:43:31;;;;;;;16.27;14.20;;;;;;;;;;5074803;28;20113;-67
2023/12/08 00:45:58;;;;;;;16.38;14.52;;;13.30;77.50;;;;;;5074554;28;20048;-67
2023/12/08 00:48:24;;;;;;;15.77;13.65;;;;;;;;;;5078250;28;20040;-66
2023/12/08 00:50:50;;;;;;;15.63;13.88;;;;;;;;;;5103134;28;20050;-67
2023/12/08 00:53:16;;;;;;;16.48;14.02;;;;;;;;;;5092091;28;20070;-66
2023/12/08 00:55:42;;;;;;;15.77;13.40;;;;;;;;;;5092731;28;20052;-66
2023/12/08 00:58:09;;;;;;;17.55;14.15;;;;;;;;;;5095121;28;20047;-66
2023/12/08 01:00:36;;;;;;;14.73;13.15;;;;;;;;;;5103748;28;20094;-67
2023/12/08 01:03:02;;;;;;;16.40;13.02;;;;;;;;;;5073814;28;20064;-67
2023/12/08 01:05:28;;;;;;;15.35;13.73;;;;;;;;;;5097575;28;20040;-66
2023/12/08 01:07:55;;;;;;;15.18;12.73;;;;;;;;;;5074564;28;20047;-67
2023/12/08 01:10:21;;;;;;;15.02;13.43;;;;;;;;;;5073795;28;20127;-66
2023/12/08 01:12:47;;;;;;;14.60;13.00;;;;;;;;;;5083323;28;20043;-67
2023/12/08 01:15:13;;;;;;;15.32;13.10;;;;;;;;;;5057126;28;20512;-67
2023/12/08 01:17:39;;;;;;;16.40;12.90;;;;;;;;;;5092230;28;20118;-67
2023/12/08 01:20:07;;;;;;;15.25;13.35;;;;;;;;;;5103949;28;20366;-67
2023/12/08 01:22:34;;;;;;;16.52;12.95;;;;;;;;;;5076493;28;20438;-66
2023/12/08 01:25:00;;;;;;;15.27;12.88;;;;;;;;;;5074366;28;20082;-67
2023/12/08 01:27:26;;;;;;;15.05;12.68;;;;;;;;;;5109175;28;20511;-67
2023/12/08 01:29:52;;;;;;;14.10;12.60;;;;;;;;;;5064372;28;20040;-67
2023/12/08 01:32:18;;;;;;;13.93;12.30;;;;;;;;;;5073318;28;20489;-67
2023/12/08 01:34:44;;;;;;;13.73;12.07;;;;;;;;;;5091733;28;20051;-66
2023/12/08 01:37:10;;;;;;;13.48;11.95;;;;;;;;;;5057235;28;20059;-67
2023/12/08 01:39:37;;;;;;;14.48;12.57;;;;;;;;;;5058895;28;20039;-67
2023/12/08 01:42:03;;;;;;;14.32;12.00;;;13.70;76.90;;;;;;5096055;28;20098;-67
2023/12/08 01:44:30;;;;;;;13.40;11.80;;;;;;;;;;5090020;28;20043;-67
2023/12/08 01:46:56;;;;;;;13.73;11.98;;;;;;;;;;5104284;28;20043;-67
2023/12/08 01:49:22;;;;;;;13.70;12.27;;;;;;;;;;5114373;28;20044;-67
2023/12/08 01:51:48;;;;;;;13.35;11.88;;;;;;;;;;5115632;28;20089;-67
2023/12/08 01:54:14;;;;;;;13.00;11.60;;;;;;;;;;5096879;28;20384;-67
2023/12/08 01:56:40;;;;;;;12.55;11.20;;;;;;;;;;5094144;28;20404;-66
2023/12/08 01:59:07;;;;;;;13.93;11.30;;;;;;;;;;5099628;28;20118;-66
2023/12/08 02:01:33;;;;;;;13.85;12.00;;;;;;;;;;5096798;28;20560;-67
2023/12/08 02:03:59;;;;;;;13.30;11.60;;;;;;;;;;5108670;28;20117;-67
2023/12/08 02:06:25;;;;;;;12.10;10.75;;;;;;;;;;5097022;28;20549;-67
2023/12/08 02:08:51;;;;;;;12.82;11.35;;;;;;;;;;5097626;28;20440;-67
2023/12/08 02:11:18;;;;;;;14.00;11.50;;;;;;;;;;5092056;28;20043;-67
2023/12/08 02:13:44;;;;;;;14.00;11.73;;;;;;;;;;5083847;28;20482;-67
2023/12/08 02:16:11;;;;;;;13.55;11.55;;;;;;;;;;5094172;28;20044;-67
2023/12/08 02:18:38;;;;;;;12.93;11.32;;;;;;;;;;5076639;28;20050;-67
2023/12/08 02:21:04;;;;;;;12.68;11.15;;;;;;;;;;5088780;28;20493;-67
2023/12/08 02:23:30;;;;;;;13.15;11.15;;;;;;;;;;5076208;28;20048;-67
2023/12/08 02:25:56;;;;;;;12.82;10.57;;;;;;;;;;5076373;28;20059;-67
2023/12/08 02:28:22;;;;;;;13.50;11.02;;;;;;;;;;5085554;28;20412;-67
2023/12/08 02:30:48;;;;;;;13.50;10.50;;;;;;;;;;5093361;28;20533;-67
2023/12/08 02:33:19;;;;;;;11.95;10.48;;;;;;;;;;5122673;27;20110;-67
2023/12/08 02:35:45;;;;;;;12.38;11.02;;;;;;;;;;5117448;27;20404;-67
2023/12/08 02:38:12;;;;;;;13.35;10.95;;;;;;;;;;5090370;28;20044;-66
2023/12/08 02:40:38;;;;;;;12.75;11.32;;;;;;;;;;5096481;28;20115;-67
2023/12/08 02:43:04;;;;;;;13.75;11.07;;;;;;;;;;5077411;28;20040;-67
2023/12/08 02:45:30;;;;;;;12.07;10.77;;;;;;;;;;5094566;28;20389;-67
2023/12/08 02:47:56;;;;;;;12.80;10.73;;;;;;;;;;5106671;28;20100;-67
2023/12/08 02:50:22;;;;;;;12.10;10.02;;;;;;;;;;5095580;28;20043;-67
2023/12/08 02:52:49;;;;;;;13.13;10.90;;;;;;;;;;5067793;28;20105;-67
2023/12/08 02:55:15;;;;;;;13.55;9.95;;;;;;;;;;5092328;28;20097;-67
2023/12/08 02:57:41;;;;;;;11.30;9.73;;;;;;;;;;5111834;28;20078;-67
2023/12/08 03:00:07;;;;;;;12.05;9.90;;;;;;;;;;5091613;28;20052;-67
2023/12/08 03:02:33;;;;;;;12.85;10.40;;;;;;;;;;5114037;28;20630;-67
2023/12/08 03:05:00;;;;;;;12.50;10.25;;;;;;;;;;5110753;28;20039;-67
2023/12/08 03:07:26;;;;;;;12.40;10.27;;;;;;;;;;5109552;28;20044;-66
2023/12/08 03:09:52;;;;;;;12.38;10.32;;;;;;;;;;5100093;28;20048;-66
2023/12/08 03:12:18;;;;;;;12.25;10.23;;;;;;;;;;5089729;28;20070;-67
2023/12/08 03:14:44;;;;;;;12.63;10.10;;;;;;;;;;5102989;28;20040;-67
2023/12/08 03:17:10;;;;;;;12.40;10.07;;;;;;;;;;5096637;28;20040;-67
2023/12/08 03:19:36;;;;;;;12.07;10.38;;;;;;;;;;5092179;28;20067;-67
2023/12/08 03:22:03;;;;;;;12.43;9.85;;;;;;;;;;5114123;28;20051;-67
2023/12/08 03:24:29;;;;;;;12.25;10.27;;;;;;;;;;5114136;28;20423;-66
2023/12/08 03:26:55;;;;;;;12.27;10.07;;;;;;;;;;5117096;27;20387;-66
2023/12/08 03:29:21;;;;;;;11.98;9.93;;;;;;;;;;5068915;28;20492;-67
2023/12/08 03:31:47;;;;;;;12.45;10.13;;;;;;;;;;5081753;28;20045;-67
2023/12/08 03:34:13;;;;;;;12.38;10.05;;;;;;;;;;5081205;28;20504;-66
2023/12/08 03:36:39;;;;;;;11.45;9.75;;;;;;;;;;5068852;28;20130;-66
2023/12/08 03:39:05;;;;;;;12.45;10.20;;;;;;;;;;5113471;28;20043;-66
2023/12/08 03:41:32;;;;;;;10.90;9.70;;;;;;;;;;5093851;27;20052;-66
2023/12/08 03:43:58;;;;;;;12.10;9.95;;;;;;;;;;5074829;28;20042;-66
2023/12/08 03:46:24;;;;;;;11.10;9.43;;;;;;;;;;5082353;28;20044;-67
2023/12/08 03:48:50;;;;;;;12.07;9.63;;;;;;;;;;5081069;28;20097;-66
2023/12/08 03:51:16;;;;;;;13.50;10.00;;;;;;;;;;5074744;28;20056;-66
2023/12/08 03:53:42;;;;;;;11.75;10.13;;;;;;;;;;5075048;28;20541;-66
2023/12/08 03:56:09;;;;;;;12.50;10.30;;;;;;;;;;5074341;28;20095;-67
2023/12/08 03:58:35;;;;;;;13.05;10.68;;;;;;;;;;5111439;28;20044;-67
2023/12/08 04:01:01;;;;;;;12.13;9.85;;;;;;;;;;5069384;28;20044;-66
2023/12/08 04:03:27;;;;;;;13.00;9.90;;;;;;;;;;5084857;28;20070;-67
2023/12/08 04:05:53;;;;;;;11.82;10.52;;;;;;;;;;5113309;28;20055;-67
2023/12/08 04:08:19;;;;;;;12.63;10.10;;;;;;;;;;5093340;28;20043;-66
2023/12/08 04:10:45;;;;;;;12.88;10.65;;;;;;;;;;5112408;28;20035;-66
2023/12/08 04:13:12;;;;;;;11.25;9.63;;;;;;;;;;5082994;28;20078;-67
2023/12/08 04:15:38;;;;;;;11.93;9.80;;;;;;;;;;5081683;28;20114;-67
2023/12/08 04:18:04;;;;;;;12.52;10.20;;;;;;;;;;5111172;28;20062;-67
2023/12/08 04:20:31;;;;;;;12.38;9.23;;;;;;;;;;5106806;27;20035;-66
2023/12/08 04:22:57;;;;;;;12.13;10.10;;;;;;;;;;5133282;27;20477;-66
2023/12/08 04:25:23;;;;;;;12.93;10.70;;;;;;;;;;5133330;27;20047;-66
2023/12/08 04:27:49;;;;;;;14.02;8.48;;;;;;;;;;5117312;27;20152;-66
2023/12/08 04:30:15;;;;;;;10.07;7.20;;;;;;;;;;5074316;28;20059;-67
2023/12/08 04:32:42;;;;;;;11.35;9.90;;;;;;;;;;5073361;28;20052;-67
2023/12/08 04:35:09;;;;;;;12.82;9.90;;;;;;;;;;5099552;28;20039;-66
2023/12/08 04:37:35;;;;;;;11.27;9.65;;;;;;;;;;5080881;28;20052;-66
2023/12/08 04:40:02;;;;;;;12.13;10.30;;;;;;;;;;5057569;28;20048;-66
2023/12/08 04:42:28;;;;;;;14.07;8.13;;;;;;;;;;5075559;28;20036;-67
2023/12/08 04:44:55;;;;;;;12.05;7.75;;;;;;;;;;5078504;28;20169;-66
2023/12/08 04:47:21;;;;;;;10.88;9.75;;;;;;;;;;5091390;28;20443;-66
2023/12/08 04:49:47;;;;;;;11.45;7.40;;;;;;;;;;5087209;28;20047;-66
2023/12/08 04:52:13;;;;;;;12.40;7.85;;;;;;;;;;5070721;28;20047;-67
2023/12/08 04:54:39;;;;;;;11.55;9.75;;;;;;;;;;5066892;28;20443;-67
2023/12/08 04:57:05;;;;;;;12.45;7.95;;;;;;;;;;5072766;28;20066;-66
2023/12/08 04:59:31;;;;;;;12.50;7.57;;;;;;;;;;5041141;28;20486;-67
2023/12/08 05:01:58;;;;;;;12.20;7.80;;;;;;;;;;5077537;28;20398;-67
2023/12/08 05:04:24;;;;;;;12.88;8.07;;;;;;;;;;5073485;28;20040;-67
2023/12/08 05:06:50;;;;;;;11.73;9.60;;;;;;;;;;5057157;28;20042;-66
2023/12/08 05:09:17;;;;;;;11.07;9.80;;;;;;;;;;5083595;28;20738;-67
2023/12/08 05:11:43;;;;;;;11.88;9.88;;;;;;;;;;5080198;28;20043;-66
2023/12/08 05:14:09;;;;;;;13.75;10.55;;;;;;;;;;5093571;28;20051;-66
2023/12/08 05:16:35;;;;;;;12.68;10.27;;;;;;;;;;5077655;28;20080;-67
2023/12/08 05:19:01;;;;;;;13.07;9.95;;;;;;;;;;5100649;28;20571;-67
2023/12/08 05:21:27;;;;;;;12.25;10.40;;;;;;;;;;5077147;28;20036;-66
2023/12/08 05:23:54;;;;;;;12.48;7.75;;;;;;;;;;5059426;28;20040;-66
2023/12/08 05:26:20;;;;;;;12.57;9.82;;;;;;;;;;5061292;28;20043;-66
2023/12/08 05:28:47;;;;;;;12.27;9.93;;;;;;;;;;5056277;28;20054;-67
2023/12/08 05:31:13;;;;;;;14.18;11.07;;;;;;;;;;5097965;28;20043;-67
2023/12/08 05:33:39;;;;;;;12.70;10.75;;;;;;;;;;5096842;28;20096;-66
2023/12/08 05:36:05;;;;;;;12.68;10.00;;;;;;;;;;5113149;28;20810;-66
2023/12/08 05:38:31;;;;;;;13.25;8.32;;;;;;;;;;5076183;28;20085;-67
2023/12/08 05:40:58;;;;;;;11.50;7.28;;;;;;;;;;5060744;28;20048;-67
2023/12/08 05:43:24;;;;;;;12.98;7.57;;;;;;;;;;5071940;28;20046;-66
2023/12/08 05:45:50;;;;;;;12.63;10.50;;;;;;;;;;5095883;28;20074;-68
2023/12/08 05:48:16;;;;;;;13.02;8.70;;;;;;;;;;5057482;28;20047;-68
2023/12/08 05:50:43;;;;;;;14.00;7.93;;;;;;;;;;5065735;28;20039;-66
2023/12/08 05:53:09;;;;;;;12.55;7.88;;;;;;;;;;5102209;28;20122;-67
2023/12/08 05:55:36;;;;;;;12.70;8.43;;;11.30;84.80;;;;;;5060592;28;20040;-67
2023/12/08 05:58:01;;;;;;;14.18;11.20;;;11.00;83.90;;;;;;5070219;28;20047;-66
2023/12/08 06:00:28;;;;;;;13.48;11.48;;;;;;;;;;5080540;28;20054;-67
2023/12/08 06:02:54;;;;;;;14.93;11.18;;;;;;;;;;5063098;28;20044;-67
2023/12/08 06:05:20;;;;;;;13.25;8.27;;;;;;;;;;5076519;28;20157;-67
2023/12/08 06:07:46;;;;;;;14.23;8.20;;;;;;;;;;5076355;28;20101;-67
2023/12/08 06:10:13;;;;;;;13.13;7.57;;;;;;;;;;5094790;28;20048;-66
2023/12/08 06:12:39;;;;;;;13.93;9.48;;;;;;;;;;5076854;28;20039;-66
2023/12/08 06:15:09;;;;;;;13.57;11.05;;;10.90;80.30;;;;;;5094853;28;20164;-66
2023/12/08 06:17:36;;;;;;;12.43;10.20;;;;;;;;;;5101494;28;20047;-67
2023/12/08 06:20:04;;;;;;;12.77;8.30;;;;;;;;;;5076360;28;20044;-67
2023/12/08 06:22:31;;;;;;;13.82;8.57;;;;;;;;;;5093152;28;20467;-66
2023/12/08 06:24:57;;;;;;;13.15;8.18;;;;;;;;;;5079952;28;20078;-66
2023/12/08 06:27:23;;;;;;;12.35;8.30;;;;;;;;;;5092992;28;20039;-67
2023/12/08 06:29:52;;;;;;;12.55;8.02;;;;;;;;;;5094837;28;20036;-66
2023/12/08 06:32:18;;;;;;;14.77;8.70;;;;;;;;;;5076607;28;20124;-66
2023/12/08 06:34:46;;;;;;;12.57;10.85;;;;;;;;;;5071560;28;20040;-67
2023/12/08 06:37:12;;;;;;;13.27;8.77;;;11.00;81.10;;;;;;5098858;28;20087;-67
2023/12/08 06:39:42;;;;;;;12.63;8.73;;;;;;;;;;5096476;28;20047;-66
2023/12/08 06:42:08;;;;;;;14.15;9.05;;;;;;;;;;5113327;28;20370;-67
2023/12/08 06:44:34;;;;;;;14.02;8.68;;;;;;;;;;5076318;28;20058;-66
2023/12/08 06:47:00;;;;;;;12.82;8.77;;;;;;;;;;5077202;28;20056;-67
2023/12/08 06:49:27;;;;;;;16.45;8.95;;;;;;;;;;5076424;28;20457;-67
2023/12/08 06:51:53;;;;;;;15.63;9.25;;;;;;;;;;5095666;28;20039;-67
2023/12/08 06:54:19;;;;;;;13.93;8.23;;;;;;;;;;5096489;28;20098;-66
2023/12/08 06:56:45;;;;;;;13.27;8.45;;;;;;;;;;5094514;28;20498;-66
2023/12/08 06:59:11;;;;;;;12.13;8.27;;;;;;;;;;5068052;28;20294;-66
2023/12/08 07:01:37;;;;;;;13.10;11.40;;;;;;;;;;5093721;28;20091;-66
2023/12/08 07:04:04;;;;;;;13.48;8.60;;;;;;;;;;5059355;28;20052;-66
2023/12/08 07:06:30;;;;;;;12.93;8.77;;;;;;;;;;5059194;28;20074;-66
2023/12/08 07:08:56;;;;;;;13.70;8.50;;;;;;;;;;5110354;28;20039;-66
2023/12/08 07:11:22;;;;;;;13.63;8.25;;;;;;;;;;5065962;28;20052;-66
2023/12/08 07:13:49;;;;;;;18.73;9.05;;;;;;;;;;5075467;28;20109;-65
2023/12/08 07:16:15;;;;;;;18.38;8.82;;;;;;;;;;5093602;28;20520;-65
2023/12/08 07:18:41;;;;;;;13.52;7.95;;;;;;;;;;5093822;28;20123;-66
2023/12/08 07:21:07;;;;;;;39.20;27.48;;;;;;;;;;5081775;27;20077;-67
2023/12/08 07:23:34;;;;;;;227.70;127.63;;;;;;;;;;5100641;28;20052;-67
2023/12/08 07:26:00;;;;;;;207.07;91.68;;;;;;;;;;5100023;28;20047;-68
2023/12/08 07:28:27;;;;;;;191.82;81.63;;;;;;;;;;5075319;28;20044;-68
2023/12/08 07:30:53;;;;;;;126.80;67.78;;;;;;;;;;5081197;28;20485;-68
2023/12/08 07:33:19;;;;;;;102.68;58.60;;;;;;;;;;5077286;28;20504;-67
2023/12/08 07:35:45;;;;;;;94.10;49.85;;;;;;;;;;5081405;28;20044;-67
2023/12/08 07:38:11;;;;;;;71.43;44.97;;;;;;;;;;5074798;28;20074;-67
2023/12/08 07:40:37;;;;;;;85.68;43.13;;;;;;;;;;5087866;28;20122;-66
2023/12/08 07:43:03;;;;;;;66.15;40.15;;;;;;;;;;5082236;28;20040;-65
2023/12/08 07:45:30;;;;;;;67.03;36.40;;;;;;;;;;5075136;28;20058;-64
2023/12/08 07:47:57;;;;;;;52.80;32.67;;;;;;;;;;5093143;28;20044;-65
2023/12/08 07:50:23;;;;;;;57.28;30.92;;;12.30;84.60;;;;;;5101722;27;20054;-67
2023/12/08 07:52:51;;;;;;;46.33;36.08;;;;;;;;;;5094899;28;20094;-67
2023/12/08 07:55:18;;;;;;;63.28;34.90;;;;;;;;;;5113593;28;20051;-68
2023/12/08 07:57:44;;;;;;;48.25;35.85;;;;;;;;;;5095320;28;20047;-67
2023/12/08 08:00:10;;;;;;;50.97;32.28;;;;;;;;;;5086687;28;20048;-68
2023/12/08 08:02:37;;;;;;;37.00;30.40;;;12.60;80.40;;;;;;5074566;28;20047;-68
2023/12/08 08:05:04;;;;;;;30.52;23.80;;;;;;;;;;5092640;28;20055;-68
2023/12/08 08:07:31;;;;;;;34.95;25.73;;;;;;;;;;5079226;28;20447;-68
2023/12/08 08:09:57;;;;;;;32.08;23.92;;;;;;;;;;5112289;28;20040;-67
2023/12/08 08:12:23;;;;;;;33.90;23.83;;;;;;;;;;5099545;28;20036;-69
2023/12/08 08:14:49;;;;;;;30.25;23.23;;;;;;;;;;5074495;28;20047;-69
2023/12/08 08:17:15;;;;;;;27.83;21.83;;;;;;;;;;5093205;28;20036;-67
2023/12/08 08:19:42;;;;;;;78.57;70.28;;;;;;;;;;5075028;28;20169;-68
2023/12/08 08:22:08;;;;;;;64.82;57.95;;;;;;;;;;5080816;28;20413;-68
2023/12/08 08:24:35;;;;;;;48.58;43.90;;;;;;;;;;5075208;28;20044;-67
2023/12/08 08:27:01;;;;;;;41.33;37.03;;;;;;;;;;5084378;28;20055;-67
2023/12/08 08:29:27;;;;;;;40.90;34.33;;;;;;;;;;5094545;28;20042;-69
2023/12/08 08:31:53;;;;;;;36.80;33.08;;;;;;;;;;5092128;28;20051;-69
2023/12/08 08:34:20;;;;;;;34.65;31.02;;;;;;;;;;5074744;28;20044;-68
2023/12/08 08:36:46;;;;;;;31.58;28.25;;;;;;;;;;5079786;28;20099;-68
2023/12/08 08:39:14;;;;;;;30.63;27.73;;;;;;;;;;5111980;28;20514;-67
2023/12/08 08:41:44;;;;;;;27.70;24.88;;;;;;;;;;5109460;28;20040;-66
2023/12/08 08:44:10;;;;;;;27.25;24.38;;;;;;;;;;5085047;28;20063;-69
2023/12/08 08:46:38;;;;;;;49.08;43.95;;;;;;;;;;5074337;28;20492;-67
2023/12/08 08:49:04;;;;;;;83.65;75.50;;;14.00;80.60;;;;;;5075450;28;20483;-67
2023/12/08 08:51:30;;;;;;;60.17;54.22;;;14.00;80.60;;;;;;5101679;28;20039;-67
2023/12/08 08:53:56;;;;;;;48.70;43.92;;;14.20;80.60;;;;;;5079438;28;20051;-68
2023/12/08 08:56:22;;;;;;;45.90;41.63;;;;;;;;;;5082725;28;20109;-67
2023/12/08 08:58:49;;;;;;;40.70;36.78;;;;;;;;;;5061712;28;20051;-67
2023/12/08 09:01:15;;;;;;;40.35;36.65;;;;;;;;;;5081828;28;20040;-68
2023/12/08 09:03:41;;;;;;;37.13;33.28;;;;;;;;;;5087633;28;20083;-68
2023/12/08 09:06:07;;;;;;;299.92;212.60;;;;;;;;;;5060192;28;20882;-68
2023/12/08 09:08:33;;;;;;;428.92;301.30;;;;;;;;;;5078811;28;20048;-67
2023/12/08 09:11:00;;;;;;;346.42;244.15;;;;;;;;;;5078226;28;20385;-67
2023/12/08 09:13:26;;;;;;;241.23;170.70;;;;;;;;;;5096816;28;20090;-67
2023/12/08 09:15:52;;;;;;;212.27;151.10;;;;;;;;;;5081789;28;20401;-67
2023/12/08 09:18:18;;;;;;;176.45;124.72;;;;;;;;;;5079694;28;20044;-68
2023/12/08 09:20:45;;;;;;;159.15;114.68;;;;;;;;;;5116604;28;20043;-68
2023/12/08 09:23:11;;;;;;;149.80;107.65;;;;;;;;;;5116241;28;20547;-67
2023/12/08 09:25:38;;;;;;;128.75;97.13;;;;;;;;;;5108691;28;20059;-67
2023/12/08 09:28:05;;;;;;;127.20;95.88;;;;;;;;;;5115017;28;20122;-68
2023/12/08 09:30:31;;;;;;;118.70;86.55;;;;;;;;;;5096215;28;20565;-67
2023/12/08 09:32:57;;;;;;;115.05;83.13;;;;;;;;;;5079245;28;20097;-67
2023/12/08 09:35:24;;;;;;;111.72;78.15;;;;;;;;;;5100786;28;20089;-67
2023/12/08 09:37:50;;;;;;;94.90;72.65;;;;;;;;;;5102385;28;20059;-67
2023/12/08 09:40:16;;;;;;;91.13;67.88;;;;;;;;;;5077371;28;20497;-67
2023/12/08 09:43:09;;;;;;;84.03;64.97;;;;;;;;;;5061099;28;20048;-68
2023/12/08 09:45:35;;;;;;;76.18;59.25;;;;;;;;;;5102633;28;20040;-67
2023/12/08 09:48:01;;;;;;;71.10;55.45;;;14.30;79.00;;;;;;5062938;28;20048;-67
2023/12/08 09:50:27;;;;;;;61.88;50.35;;;;;;;;;;5077555;28;20040;-67
2023/12/08 09:52:54;;;;;;;62.67;48.70;;;;;;;;;;5076708;28;20070;-67
2023/12/08 09:55:20;;;;;;;55.65;44.92;;;14.00;76.90;;;;;;5060766;28;20090;-67
2023/12/08 09:57:48;;;;;;;57.08;45.75;;;;;;;;;;5095416;28;20042;-67
2023/12/08 10:00:15;;;;;;;59.38;43.25;;;;;;;;;;5081498;28;20044;-68
2023/12/08 10:02:41;;;;;;;64.72;37.83;;;;;;;;;;5078822;28;20525;-69
2023/12/08 10:05:09;;;;;;;53.25;38.03;;;;;;;;;;5076092;28;20397;-67
2023/12/08 10:07:35;;;;;;;56.22;35.90;;;;;;;;;;5091277;28;20147;-67
2023/12/08 10:10:01;;;;;;;55.47;32.97;;;;;;;;;;5094729;28;20411;-66
2023/12/08 10:12:28;;;;;;;88.70;59.33;;;;;;;;;;5113255;28;20050;-68
2023/12/08 10:14:58;;;;;;;70.18;55.58;;;13.80;77.30;;;;;;5077140;28;20141;-68
2023/12/08 10:17:24;;;;;;;67.82;50.85;;;;;;;;;;5077122;28;20040;-67
2023/12/08 10:19:53;;;;;;;66.22;49.38;;;;;;;;;;5089101;28;20112;-67
2023/12/08 10:22:19;;;;;;;63.75;39.45;;;;;;;;;;5093897;28;20098;-68
2023/12/08 10:24:46;;;;;;;46.70;34.78;;;;;;;;;;5052609;28;20185;-68
2023/12/08 10:27:13;;;;;;;38.03;28.65;;;;;;;;;;5073896;28;20040;-67
2023/12/08 10:29:39;;;;;;;38.08;27.52;;;;;;;;;;5092777;28;20040;-65
2023/12/08 10:32:05;;;;;;;46.25;32.60;;;;;;;;;;5074058;28;20059;-67
2023/12/08 10:34:32;;;;;;;37.75;28.42;;;;;;;;;;5078633;28;20085;-68
2023/12/08 10:36:58;;;;;;;31.17;27.50;;;;;;;;;;5075454;28;20040;-68
2023/12/08 10:39:24;;;;;;;32.10;26.50;;;15.30;74.20;;;;;;5108572;28;20393;-68
2023/12/08 10:41:54;;;;;;;30.35;24.95;;;;;;;;;;5078158;28;20046;-68
2023/12/08 10:44:23;;;;;;;27.50;23.40;;;;;;;;;;5104482;28;20423;-68
2023/12/08 10:46:49;;;;;;;25.05;21.60;;;;;;;;;;5086872;28;20495;-68
2023/12/08 10:49:16;;;;;;;27.63;20.92;;;;;;;;;;5105075;28;20032;-68
2023/12/08 10:51:44;;;;;;;27.27;21.00;;;15.20;75.10;;;;;;5092502;28;20470;-69
2023/12/08 10:54:12;;;;;;;23.70;20.10;;;;;;;;;;5081136;28;20056;-69
2023/12/08 10:56:38;;;;;;;24.80;20.10;;;;;;;;;;5103528;28;20028;-68
2023/12/08 10:59:04;;;;;;;21.42;18.92;;;;;;;;;;5067613;28;20044;-68
2023/12/08 11:01:31;;;;;;;21.85;18.48;;;15.20;75.20;;;;;;5094893;28;20047;-68
2023/12/08 11:03:59;;;;;;;20.00;17.17;;;15.00;74.60;;;;;;4999140;28;1375839;-68
2023/12/08 11:06:26;;;;;;;90.97;64.40;;;;;;;;;;5063447;28;20043;-69
2023/12/08 11:08:54;;;;;;;76.72;55.78;;;;;;;;;;5087241;28;20036;-68
2023/12/08 11:11:21;;;;;;;59.65;47.05;;;;;;;;;;5095053;28;20118;-68
2023/12/08 11:13:48;;;;;;;49.13;38.75;;;;;;;;;;5094348;28;20035;-68
2023/12/08 11:16:17;;;;;;;45.63;35.60;;;;;;;;;;5095856;28;20515;-68
2023/12/08 11:18:44;;;;;;;41.70;34.20;;;;;;;;;;5095733;28;20461;-68
2023/12/08 11:21:11;;;;;;;39.25;31.55;;;;;;;;;;5059583;28;20401;-68
2023/12/08 11:23:37;;;;;;;38.45;31.63;;;;;;;;;;5078628;28;20096;-67
2023/12/08 11:26:03;;;;;;;34.90;30.05;;;;;;;;;;5041713;28;20370;-68
2023/12/08 11:28:29;;;;;;;32.72;26.60;;;;;;;;;;5077610;28;20118;-65
2023/12/08 11:30:57;;;;;;;35.72;27.75;;;;;;;;;;5094406;28;20044;-65
2023/12/08 11:33:27;;;;;;;34.75;27.00;;;14.90;74.30;;;;;;5078390;28;20044;-64
2023/12/08 11:35:53;;;;;;;33.58;25.50;;;;;;;;;;5058527;28;20048;-65
2023/12/08 11:38:29;;;;;;;30.17;24.38;;;;;;;;;;5064762;28;20491;-66
2023/12/08 11:40:57;;;;;;;32.22;24.73;;;14.80;78.30;;;;;;5046590;28;20466;-67
2023/12/08 11:43:23;;;;;;;80.80;69.72;;;;;;;;;;5079473;28;20394;-67
2023/12/08 11:45:50;;;;;;;49.83;44.30;;;;;;;;;;5113720;28;20051;-67
2023/12/08 11:48:17;;;;;;;49.00;39.67;;;;;;;;;;5095382;28;20066;-67
2023/12/08 11:50:43;;;;;;;41.72;35.60;;;;;;;;;;5075975;28;20397;-67
2023/12/08 11:53:09;;;;;;;40.08;34.72;;;;;;;;;;5093641;28;20460;-64
2023/12/08 11:55:36;;;;;;;38.30;33.03;;;;;;;;;;5058773;28;20048;-65
2023/12/08 11:58:02;;;;;;;33.20;29.33;;;;;;;;;;5078230;28;20111;-67
2023/12/08 12:00:28;;;;;;;32.78;28.00;;;;;;;;;;5100758;28;20044;-67
2023/12/08 12:02:55;;;;;;;30.60;27.08;;;;;;;;;;5092477;28;20060;-67
2023/12/08 12:05:21;;;;;;;29.38;26.13;;;;;;;;;;5092963;28;20416;-67
2023/12/08 12:07:51;;;;;;;31.35;25.55;;;;;;;;;;5063229;28;20063;-67
2023/12/08 12:10:18;;;;;;;28.88;24.23;;;15.10;75.20;;;;;;5052061;28;20396;-68
2023/12/08 12:12:54;;;;;;;26.00;23.20;;;;;;;;;;5057951;28;20525;-68
2023/12/08 12:15:23;;;;;;;25.85;23.02;;;;;;;;;;5081043;28;20311;-68
2023/12/08 12:17:49;;;;;;;27.80;21.63;;;;;;;;;;5094526;28;20103;-68
2023/12/08 12:20:18;;;;;;;27.00;21.85;;;;;;;;;;5081473;28;20454;-68
2023/12/08 12:22:44;;;;;;;23.23;20.05;;;;;;;;;;5085765;28;20128;-67
2023/12/08 12:25:11;;;;;;;24.00;20.20;;;;;;;;;;5074905;28;20532;-65
2023/12/08 12:27:41;;;;;;;22.30;18.95;;;;;;;;;;5096188;28;20481;-65
2023/12/08 12:30:07;;;;;;;20.52;18.33;;;;;;;;;;5096145;28;20444;-68
2023/12/08 12:32:33;;;;;;;21.10;18.63;;;;;;;;;;5064456;28;20123;-67
2023/12/08 12:35:01;;;;;;;21.27;18.15;;;;;;;;;;5092335;28;20055;-67
2023/12/08 12:37:27;;;;;;;23.15;17.90;;;;;;;;;;5092268;28;20094;-68
2023/12/08 12:39:53;;;;;;;20.42;17.85;;;;;;;;;;5085144;28;20071;-67
2023/12/08 12:42:19;;;;;;;19.73;16.98;;;;;;;;;;5077846;28;20491;-65
2023/12/08 12:44:46;;;;;;;21.02;16.50;;;;;;;;;;5074356;28;20048;-67
2023/12/08 12:47:13;;;;;;;22.48;19.50;;;;;;;;;;5074957;28;20044;-66
2023/12/08 12:49:39;;;;;;;21.25;17.30;;;;;;;;;;5066272;28;20416;-64
2023/12/08 12:52:28;;;;;;;21.10;17.95;;;14.20;77.70;;;;;;5074821;28;20068;-64
2023/12/08 12:54:54;;;;;;;19.80;15.98;;;;;;;;;;5061843;28;20047;-66
2023/12/08 12:57:21;;;;;;;19.20;15.38;;;14.70;77.70;;;;;;5048878;28;20035;-66
2023/12/08 12:59:53;;;;;;;20.33;15.82;;;14.70;75.60;;;;;;5041133;28;20082;-67
2023/12/08 13:02:29;;;;;;;17.67;14.25;;;;;;;;;;5076649;28;20063;-67
2023/12/08 13:04:55;;;;;;;16.63;13.98;;;14.90;79.00;;;;;;5059067;28;20124;-65
2023/12/08 13:07:22;;;;;;;22.00;18.48;;;;;;;;;;5065483;28;20055;-68
2023/12/08 13:09:48;;;;;;;38.65;28.63;;;;;;;;;;5079149;28;20036;-66
2023/12/08 13:12:14;;;;;;;31.80;24.58;;;;;;;;;;5077200;28;20047;-66
2023/12/08 13:14:41;;;;;;;33.58;25.48;;;;;;;;;;5074504;28;20119;-66
2023/12/08 13:17:07;;;;;;;30.90;24.33;;;;;;;;;;5087143;28;20173;-67
2023/12/08 13:19:33;;;;;;;39.50;24.73;;;;;;;;;;5122079;28;20062;-66
2023/12/08 13:22:00;;;;;;;36.35;29.35;;;;;;;;;;5059077;28;20036;-66
2023/12/08 13:24:26;;;;;;;39.15;31.92;;;;;;;;;;5105598;28;20035;-66
2023/12/08 13:26:52;;;;;;;54.00;45.80;;;;;;;;;;5090255;28;20044;-67
2023/12/08 13:29:18;;;;;;;76.38;68.05;;;;;;;;;;5070141;28;20048;-67
2023/12/08 13:31:44;;;;;;;67.18;58.15;;;;;;;;;;5070467;28;20463;-67
2023/12/08 13:34:11;;;;;;;75.18;64.18;;;;;;;;;;5087235;28;20148;-67
2023/12/08 13:36:37;;;;;;;67.32;60.00;;;;;;;;;;5086005;28;21677;-67
2023/12/08 13:39:04;;;;;;;71.30;59.22;;;;;;;;;;5049918;28;20111;-68
2023/12/08 13:41:31;;;;;;;49.72;43.92;;;;;;;;;;5090762;28;20059;-67
2023/12/08 13:43:57;;;;;;;58.08;51.05;;;;;;;;;;5068897;28;20044;-67
2023/12/08 13:46:23;;;;;;;60.17;50.08;;;;;;;;;;5088557;28;20048;-67
2023/12/08 13:48:50;;;;;;;50.90;44.08;;;;;;;;;;5078423;28;20107;-67
2023/12/08 13:51:16;;;;;;;48.88;40.88;;;;;;;;;;5063719;28;20047;-67
2023/12/08 13:53:42;;;;;;;47.22;39.28;;;;;;;;;;5097482;28;20075;-67
2023/12/08 13:56:08;;;;;;;43.92;37.13;;;;;;;;;;5085927;28;20119;-66
2023/12/08 13:58:35;;;;;;;42.70;35.83;;;;;;;;;;5062341;28;20048;-67
2023/12/08 14:01:01;;;;;;;40.63;33.20;;;;;;;;;;5043554;28;20063;-67
2023/12/08 14:03:27;;;;;;;38.92;32.05;;;;;;;;;;5076918;28;20105;-67
2023/12/08 14:05:54;;;;;;;34.17;29.27;;;;;;;;;;5052751;28;20070;-67